Flight Track Log - Related Links

Times and Time Zones

All times are in EDT time to prevent confusion due to time zone crossing. See the N5237Q flight status page for this flight to view local times or setup timezone preferences in your user account.

Time Position Orientation Groundspeed Altitude Reporting Facility
EDT Latitude Longitude Course Direction KTS MPH feet Rate Location/Type
Fri 05:16:06 PM 42.9706 -83.7853 338° Northwest 56 64 1,900  Level Cleveland Center
Fri 05:17:08 PM 42.9839 -83.8000 321° Northwest 58 67 2,400 528 Climbing Cleveland Center
Fri 05:18:11 PM 42.9969 -83.8131 324° Northwest 57 66 3,000 528 Climbing Cleveland Center
Fri 05:19:13 PM 43.0103 -83.8267 323° Northwest 57 66 3,500 435 Climbing Cleveland Center
Fri 05:20:00 PM 43.0818 -83.8084 338° Northwest  Level FlightAware Approximate
Fri 05:20:15 PM 43.0231 -83.8389 325° Northwest 56 64 3,900  Level Cleveland Center
Fri 05:21:00 PM 43.1020 -83.8196 338° Northwest  Level FlightAware Approximate
Fri 05:21:17 PM 43.0381 -83.8569 319° Northwest 71 82 4,000  Level Cleveland Center
Fri 05:22:19 PM 43.0519 -83.8739 318° Northwest 71 82 4,100 48 Climbing Cleveland Center
Fri 05:23:22 PM 43.0689 -83.8942 319° Northwest 74 85 4,100 -48 Level Cleveland Center
Fri 05:24:24 PM 43.0861 -83.9181 315° West 82 94 4,000 -97 Descending Cleveland Center
Fri 05:25:26 PM 43.1036 -83.9411 316° Northwest 83 96 3,900 -48 Descending Cleveland Center
Fri 05:26:28 PM 43.1217 -83.9631 318° Northwest 83 96 3,900 -48 Level Cleveland Center
Fri 05:27:30 PM 43.1414 -83.9833 323° Northwest 84 97 3,800 -48 Descending Cleveland Center
Fri 05:28:32 PM 43.1611 -84.0011 327° Northwest 83 96 3,800 -48 Level Cleveland Center
Fri 05:29:35 PM 43.1800 -84.0200 324° Northwest 81 93 3,700 96 Descending Cleveland Center
Fri 05:30:37 PM 43.1964 -84.0339 328° Northwest 74 85 4,000 145 Climbing Cleveland Center
Fri 05:31:39 PM 43.2133 -84.0589 313° West 81 93 4,000  Level Cleveland Center
Fri 05:32:41 PM 43.2289 -84.0831 311° West 84 97 4,000 -48 Level Cleveland Center
Fri 05:33:43 PM 43.2492 -84.1067 320° Northwest 85 98 3,900 -48 Descending Cleveland Center
Fri 05:34:45 PM 43.2664 -84.1275 319° Northwest 86 99 3,900  Level Cleveland Center
Fri 05:35:47 PM 43.2839 -84.1486 319° Northwest 83 96 3,900  Level Cleveland Center
Fri 05:36:50 PM 43.3003 -84.1689 318° Northwest 82 94 3,900 48 Level Cleveland Center
Fri 05:37:52 PM 43.3178 -84.1908 318° Northwest 82 94 4,000 48 Climbing Cleveland Center
Fri 05:38:54 PM 43.3361 -84.2125 319° Northwest 82 94 4,000 -48 Level Cleveland Center
Fri 05:39:56 PM 43.3489 -84.2358 307° West 81 93 3,900 -48 Descending Cleveland Center
Fri 05:40:58 PM 43.3672 -84.2583 318° Northwest 81 93 3,900  Level Cleveland Center
Fri 05:42:00 PM 43.3825 -84.2772 318° Northwest 80 92 3,900  Level Cleveland Center
Fri 05:43:03 PM 43.3992 -84.3006 315° West 80 92 3,900  Level Cleveland Center
Fri 05:44:05 PM 43.4158 -84.3225 316° Northwest 82 94 3,900 48 Level Cleveland Center
Fri 05:45:07 PM 43.4333 -84.3425 320° Northwest 81 93 4,000  Climbing Cleveland Center
Fri 05:46:09 PM 43.4536 -84.3583 330° Northwest 81 93 3,900  Descending Cleveland Center
Fri 05:47:11 PM 43.4708 -84.3769 322° Northwest 77 89 4,000 48 Climbing Cleveland Center
Fri 05:48:13 PM 43.4894 -84.3969 322° Northwest 80 92 4,000  Level Cleveland Center
Fri 05:49:16 PM 43.5081 -84.4167 322° Northwest 80 92 4,000  Level Cleveland Center
Fri 05:50:18 PM 43.5244 -84.4414 312° West 82 94 4,000 -48 Level Cleveland Center
Fri 05:51:20 PM 43.5417 -84.4647 316° Northwest 83 96 3,900 -48 Descending Cleveland Center
Fri 05:52:22 PM 43.5589 -84.4872 317° Northwest 83 96 3,900 -48 Level Cleveland Center
Fri 05:53:24 PM 43.5764 -84.5033 326° Northwest 82 94 3,800 48 Descending Cleveland Center
Fri 05:54:26 PM 43.5936 -84.5181 328° Northwest 73 84 4,000 97 Climbing Cleveland Center
Fri 05:55:28 PM 43.6106 -84.5392 318° Northwest 77 89 4,000 48 Level Cleveland Center
Fri 05:56:30 PM 43.6267 -84.5631 313° West 79 91 4,100  Climbing Cleveland Center
Fri 05:57:33 PM 43.6425 -84.5858 314° West 79 91 4,000 -48 Descending Cleveland Center
Fri 05:58:35 PM 43.6603 -84.6081 318° Northwest 83 96 4,000 -48 Level Cleveland Center
Fri 05:59:37 PM 43.6806 -84.6281 325° Northwest 83 96 3,900 -48 Descending Cleveland Center
Fri 06:00:39 PM 43.6989 -84.6511 318° Northwest 84 97 3,900  Level Cleveland Center
Fri 06:01:41 PM 43.7150 -84.6728 316° Northwest 84 97 3,900  Level Cleveland Center
Fri 06:02:43 PM 43.7333 -84.6903 325° Northwest 81 93 3,900 48 Level Cleveland Center
Fri 06:03:46 PM 43.7511 -84.7106 321° Northwest 81 93 4,000 48 Climbing Cleveland Center
Fri 06:04:48 PM 43.7678 -84.7333 315° West 80 92 4,000  Level Cleveland Center
Fri 06:05:50 PM 43.7867 -84.7583 316° Northwest 85 98 4,000  Level Cleveland Center
Fri 06:06:52 PM 43.8064 -84.7800 322° Northwest 87 100 4,000  Level Cleveland Center
Fri 06:07:54 PM 43.8242 -84.8000 321° Northwest 83 96 4,000 -32 Level Cleveland Center
Fri 06:09:58 PM 43.8606 -84.8400 335° Northwest 83 96 3,900 -65 Descending Cleveland Center
Fri 06:11:00 PM 43.8792 -84.8614 320° Northwest 83 96 3,800  Descending Cleveland Center
Fri 06:12:03 PM 43.8989 -84.8792 327° Northwest 83 96 3,900 96 Climbing Cleveland Center
Fri 06:13:05 PM 43.9161 -84.9017 317° Northwest 83 96 4,000  Climbing Cleveland Center
Fri 06:13:57 PM 43.9261 -84.9217 305° West 85 98 3,900 -53 Descending Minneapolis Center
Fri 06:14:59 PM 43.9422 -84.9425 317° Northwest 83 96 3,900 48 Level Minneapolis Center
Fri 06:16:01 PM 43.9608 -84.9614 324° Northwest 83 96 4,000  Climbing Minneapolis Center
Fri 06:17:03 PM 43.9822 -84.9864 320° Northwest 83 96 3,900  Descending Minneapolis Center
Fri 06:18:05 PM 43.9997 -85.0072 319° Northwest 83 96 4,000 48 Climbing Minneapolis Center
Fri 06:19:07 PM 44.0158 -85.0294 315° West 83 96 4,000  Level Minneapolis Center
Fri 06:20:09 PM 44.0333 -85.0522 317° Northwest 83 96 4,000 -48 Level Minneapolis Center
Fri 06:21:11 PM 44.0506 -85.0742 318° Northwest 83 96 3,900 -48 Descending Minneapolis Center
Fri 06:22:13 PM 44.0708 -85.0914 329° Northwest 83 96 3,900 -48 Level Minneapolis Center
Fri 06:23:15 PM 44.0981 -85.1056 340° North 83 96 3,800  Descending Minneapolis Center
Fri 06:24:17 PM 44.1111 -85.1292 308° West 82 94 3,900 144 Climbing Minneapolis Center
Fri 06:25:20 PM 44.1197 -85.1578 293° West 81 93 4,100  Climbing Minneapolis Center
Fri 06:26:22 PM 44.1342 -85.1828 309° West 81 93 3,900 -145 Descending Minneapolis Center
Fri 06:27:24 PM 44.1525 -85.2064 317° Northwest 82 94 3,800 -48 Descending Minneapolis Center
Fri 06:28:26 PM 44.1703 -85.2278 319° Northwest 82 94 3,800 48 Level Minneapolis Center
Fri 06:29:28 PM 44.1903 -85.2533 318° Northwest 82 94 3,900 97 Climbing Minneapolis Center
Fri 06:30:30 PM 44.2078 -85.2722 322° Northwest 82 94 4,000 97 Climbing Minneapolis Center
Fri 06:31:32 PM 44.2269 -85.2892 328° Northwest 82 94 4,100 48 Climbing Minneapolis Center
Fri 06:32:34 PM 44.2447 -85.3081 323° Northwest 82 94 4,100  Level Minneapolis Center
Fri 06:33:36 PM 44.2614 -85.3300 317° Northwest 82 94 4,100 -48 Level Minneapolis Center
Fri 06:34:39 PM 44.2842 -85.3586 318° Northwest 83 96 4,000 -48 Descending Minneapolis Center
Fri 06:35:41 PM 44.3011 -85.3814 316° Northwest 85 98 4,000  Level Minneapolis Center
Fri 06:36:43 PM 44.3183 -85.4039 317° Northwest 85 98 4,000  Level Minneapolis Center
Fri 06:37:45 PM 44.3356 -85.4256 318° Northwest 85 98 4,000  Level Minneapolis Center
Fri 06:38:47 PM 44.3519 -85.4486 315° West 85 98 4,000  Level Minneapolis Center
Fri 06:39:49 PM 44.3661 -85.4753 307° West 85 98 4,000 -48 Level Minneapolis Center
Fri 06:40:51 PM 44.3775 -85.5092 295° West 84 97 3,900 -96 Descending Minneapolis Center
Fri 06:41:54 PM 44.3889 -85.5372 300° West 84 97 3,800  Descending Minneapolis Center
Fri 06:42:56 PM 44.4000 -85.5661 298° West 84 97 3,900  Climbing Minneapolis Center
Fri 06:43:58 PM 44.4097 -85.5933 297° West 84 97 3,800  Descending Minneapolis Center
Fri 06:45:00 PM 44.4192 -85.6189 297° West 80 92 3,900 48 Climbing Minneapolis Center
Fri 06:46:02 PM 44.4306 -85.6458 301° West 80 92 3,900  Level Minneapolis Center
Fri 06:47:04 PM 44.4439 -85.6794 299° West 80 92 3,900 -96 Level Minneapolis Center
Fri 06:48:07 PM 44.4547 -85.7081 298° West 80 92 3,700 -192 Descending Minneapolis Center
Fri 06:49:09 PM 44.4639 -85.7375 294° West 80 92 3,500 -242 Descending Minneapolis Center
Fri 06:50:11 PM 44.4742 -85.7667 296° West 81 93 3,200 -145 Descending Minneapolis Center
Fri 06:51:13 PM 44.4853 -85.7939 300° West 81 93 3,200 -48 Level Minneapolis Center
Fri 06:52:15 PM 44.4983 -85.8244 301° West 81 93 3,100  Descending Minneapolis Center
Fri 06:53:17 PM 44.5089 -85.8478 302° West 79 91 3,200 48 Climbing Minneapolis Center
Fri 06:54:20 PM 44.5181 -85.8728 297° West 75 86 3,200 -96 Level Minneapolis Center
Fri 06:55:22 PM 44.5269 -85.8997 295° West 75 86 3,000 -145 Descending Minneapolis Center
Fri 06:56:24 PM 44.5375 -85.9278 298° West 75 86 2,900 -97 Descending Minneapolis Center
Fri 06:57:26 PM 44.5472 -85.9542 297° West 75 86 2,800 -48 Descending Minneapolis Center
Fri 06:58:28 PM 44.5597 -85.9864 299° West 75 86 2,800  Level Minneapolis Center
Fri 06:59:30 PM 44.5694 -86.0117 298° West 75 86 2,800  Level Minneapolis Center
Fri 07:00:33 PM 44.5786 -86.0383 296° West 75 86 2,800  Level Minneapolis Center

Login

Don't have an account? Register now (free) for customized features, flight alerts, and more!